createdAt,value
2017-07-21T00:00:42.367Z,2.50
2017-07-21T00:03:10.480Z,2.57
2017-07-21T00:05:38.625Z,2.20
2017-07-21T00:08:06.731Z,2.73
2017-07-21T00:10:34.828Z,3.27
2017-07-21T00:13:02.943Z,2.30
2017-07-21T00:15:31.119Z,3.00
2017-07-21T00:17:59.321Z,2.03
2017-07-21T00:20:27.455Z,2.70
2017-07-21T00:22:55.564Z,2.60
2017-07-21T00:25:23.649Z,2.73
2017-07-21T00:27:51.767Z,2.43
2017-07-21T00:30:19.879Z,2.43
2017-07-21T00:32:47.975Z,2.37
2017-07-21T00:35:16.077Z,2.33
2017-07-21T00:37:44.200Z,2.40
2017-07-21T00:40:12.303Z,2.57
2017-07-21T00:42:40.416Z,2.47
2017-07-21T00:45:08.537Z,2.20
2017-07-21T00:47:36.639Z,2.37
2017-07-21T00:50:04.759Z,2.10
2017-07-21T00:52:32.851Z,1.93
2017-07-21T00:55:00.975Z,2.13
2017-07-21T00:58:53.571Z,2.60
2017-07-21T01:01:22.030Z,2.40
2017-07-21T01:03:50.152Z,2.33
2017-07-21T01:06:18.295Z,2.70
2017-07-21T01:10:10.908Z,2.23
2017-07-21T01:12:39.255Z,2.40
2017-07-21T01:15:07.356Z,2.80
2017-07-21T01:17:35.443Z,2.10
2017-07-21T01:20:03.684Z,2.00
2017-07-21T01:22:31.796Z,2.23
2017-07-21T01:26:24.135Z,2.00
2017-07-21T01:28:52.527Z,2.43
2017-07-21T01:31:20.699Z,2.77
2017-07-21T01:33:49.228Z,2.23
2017-07-21T01:38:55.056Z,2.87
2017-07-21T01:41:23.199Z,2.40
2017-07-21T01:43:51.319Z,2.30
2017-07-21T01:46:19.399Z,2.00
2017-07-21T01:48:47.491Z,2.17
2017-07-21T01:51:15.601Z,2.20
2017-07-21T01:53:43.728Z,2.07
2017-07-21T01:56:11.832Z,1.93
2017-07-21T01:58:39.976Z,2.10
2017-07-21T02:03:41.512Z,2.10
2017-07-21T02:06:09.688Z,2.20
2017-07-21T02:08:37.788Z,2.33
2017-07-21T02:11:05.982Z,2.50
2017-07-21T02:13:34.083Z,2.30
2017-07-21T02:16:02.196Z,2.33
2017-07-21T02:18:30.311Z,2.40
2017-07-21T02:20:58.407Z,2.17
2017-07-21T02:23:26.527Z,2.87
2017-07-21T02:25:54.643Z,1.90
2017-07-21T02:28:22.764Z,2.33
2017-07-21T02:30:50.868Z,1.90
2017-07-21T02:33:18.979Z,2.23
2017-07-21T02:35:47.093Z,2.07
2017-07-21T02:38:15.179Z,2.07
2017-07-21T02:40:43.285Z,1.90
2017-07-21T02:43:11.418Z,2.10
2017-07-21T02:45:39.588Z,2.10
2017-07-21T02:48:07.727Z,2.10
2017-07-21T02:50:36.816Z,1.97
2017-07-21T02:53:04.956Z,1.83
2017-07-21T02:55:33.072Z,1.97
2017-07-21T02:58:01.192Z,2.30
2017-07-21T03:00:29.316Z,1.90
2017-07-21T03:02:57.523Z,2.07
2017-07-21T03:05:25.615Z,1.70
2017-07-21T03:07:53.723Z,1.87
2017-07-21T03:10:21.820Z,2.10
2017-07-21T03:12:50.000Z,1.77
2017-07-21T03:15:18.131Z,2.40
2017-07-21T03:17:46.272Z,1.97
2017-07-21T03:20:14.363Z,1.87
2017-07-21T03:22:51.816Z,2.10
2017-07-21T03:25:19.912Z,2.30
2017-07-21T03:27:48.035Z,1.87
2017-07-21T03:30:16.155Z,2.00
2017-07-21T03:32:44.256Z,2.30
2017-07-21T03:35:12.376Z,2.10
2017-07-21T03:37:40.692Z,1.90
2017-07-21T03:40:08.817Z,1.80
2017-07-21T03:42:36.924Z,1.57
2017-07-21T03:45:05.044Z,2.00
2017-07-21T03:47:33.146Z,1.47
2017-07-21T03:50:01.271Z,2.30
2017-07-21T03:52:29.380Z,2.30
2017-07-21T03:54:57.487Z,1.57
2017-07-21T03:57:25.596Z,1.50
2017-07-21T03:59:53.759Z,1.73
2017-07-21T04:02:21.892Z,1.40
2017-07-21T04:04:50.056Z,1.60
2017-07-21T04:07:18.188Z,1.40
2017-07-21T04:09:51.233Z,1.60
2017-07-21T04:12:19.599Z,1.67
2017-07-21T04:14:47.805Z,1.90
2017-07-21T04:17:16.037Z,1.90
2017-07-21T04:19:44.163Z,1.70
2017-07-21T04:22:12.271Z,2.23
2017-07-21T04:24:40.383Z,2.47
2017-07-21T04:27:08.557Z,2.23
2017-07-21T04:29:36.664Z,2.00
2017-07-21T04:32:04.758Z,2.10
2017-07-21T04:34:33.080Z,1.83
2017-07-21T04:37:01.172Z,2.20
2017-07-21T04:39:29.302Z,2.10
2017-07-21T04:41:57.415Z,1.83
2017-07-21T04:44:26.417Z,1.80
2017-07-21T04:46:54.512Z,2.00
2017-07-21T04:49:22.645Z,2.10
2017-07-21T04:51:50.791Z,2.47
2017-07-21T04:54:18.912Z,1.83
2017-07-21T04:56:47.007Z,1.50
2017-07-21T04:59:15.107Z,2.13
2017-07-21T05:01:43.224Z,1.93
2017-07-21T05:04:11.357Z,1.80
2017-07-21T05:06:39.496Z,1.87
2017-07-21T05:09:07.604Z,1.80
2017-07-21T05:11:35.712Z,1.70
2017-07-21T05:14:03.812Z,1.60
2017-07-21T05:16:31.935Z,2.00
2017-07-21T05:19:00.112Z,2.20
2017-07-21T05:21:28.216Z,2.10
2017-07-21T05:23:56.330Z,2.00
2017-07-21T05:26:24.424Z,1.77
2017-07-21T05:28:52.541Z,1.30
2017-07-21T05:31:20.647Z,1.63
2017-07-21T05:33:48.755Z,2.33
2017-07-21T05:36:17.880Z,1.90
2017-07-21T05:38:45.995Z,1.90
2017-07-21T05:41:14.084Z,2.23
2017-07-21T05:43:42.184Z,1.70
2017-07-21T05:46:10.304Z,1.70
2017-07-21T05:48:38.455Z,1.93
2017-07-21T05:51:06.532Z,1.80
2017-07-21T05:53:34.680Z,1.37
2017-07-21T05:56:02.776Z,1.60
2017-07-21T05:58:30.984Z,1.60
2017-07-21T06:00:59.196Z,1.97
2017-07-21T06:03:27.291Z,1.60
2017-07-21T06:05:55.419Z,1.80
2017-07-21T06:08:24.191Z,1.67
2017-07-21T06:10:52.300Z,2.40
2017-07-21T06:13:20.420Z,1.73
2017-07-21T06:15:48.518Z,1.93
2017-07-21T06:18:16.640Z,1.60
2017-07-21T06:20:44.763Z,2.00
2017-07-21T06:23:12.852Z,2.30
2017-07-21T06:25:40.957Z,1.90
2017-07-21T06:28:09.091Z,2.20
2017-07-21T06:30:37.276Z,2.07
2017-07-21T06:33:05.380Z,2.20
2017-07-21T06:35:33.543Z,1.80
2017-07-21T06:38:01.629Z,1.60
2017-07-21T06:40:29.737Z,1.80
2017-07-21T06:42:57.871Z,2.30
2017-07-21T06:45:25.987Z,1.50
2017-07-21T06:47:54.095Z,1.87
2017-07-21T06:50:27.424Z,2.03
2017-07-21T06:52:55.543Z,1.70
2017-07-21T06:55:23.649Z,2.27
2017-07-21T06:57:51.815Z,1.93
2017-07-21T07:00:19.936Z,1.60
2017-07-21T07:02:48.072Z,1.93
2017-07-21T07:05:16.181Z,1.70
2017-07-21T07:07:44.291Z,2.80
2017-07-21T07:10:12.424Z,2.07
2017-07-21T07:12:40.635Z,1.80
2017-07-21T07:15:08.750Z,2.10
2017-07-21T07:17:36.852Z,1.70
2017-07-21T07:20:04.964Z,1.90
2017-07-21T07:22:33.162Z,1.70
2017-07-21T07:25:01.247Z,1.83
2017-07-21T07:27:29.351Z,2.47
2017-07-21T07:29:57.544Z,1.90
2017-07-21T07:32:25.660Z,1.90
2017-07-21T07:34:53.747Z,1.90
2017-07-21T07:37:21.911Z,1.83
2017-07-21T07:39:50.046Z,1.70
2017-07-21T07:42:18.180Z,1.80
2017-07-21T07:44:46.297Z,2.33
2017-07-21T07:47:14.810Z,1.80
2017-07-21T07:49:42.928Z,1.60
2017-07-21T07:52:11.058Z,1.70
2017-07-21T07:54:39.156Z,1.50
2017-07-21T07:57:07.323Z,2.27
2017-07-21T07:59:35.444Z,1.90
2017-07-21T08:02:03.563Z,1.90
2017-07-21T08:04:31.724Z,1.90
2017-07-21T08:06:59.839Z,2.27
2017-07-21T08:09:27.947Z,2.53
2017-07-21T08:11:56.071Z,2.10
2017-07-21T08:14:24.207Z,2.53
2017-07-21T08:16:52.320Z,2.83
2017-07-21T08:19:20.531Z,3.90
2017-07-21T08:21:48.661Z,4.63
2017-07-21T08:24:16.760Z,4.03
2017-07-21T08:26:44.860Z,4.03
2017-07-21T08:29:12.973Z,3.90
2017-07-21T08:31:41.076Z,3.00
2017-07-21T08:34:09.196Z,4.67
2017-07-21T08:39:10.876Z,5.03
2017-07-21T08:41:39.001Z,4.63
2017-07-21T08:44:07.197Z,4.90
2017-07-21T08:46:35.291Z,5.00
2017-07-21T08:49:03.407Z,5.50
2017-07-21T08:51:31.511Z,5.37
2017-07-21T08:53:59.612Z,5.93
2017-07-21T08:56:27.743Z,4.33
2017-07-21T08:58:56.374Z,3.63
2017-07-21T09:01:24.516Z,3.53
2017-07-21T09:03:52.631Z,4.10
2017-07-21T09:06:20.739Z,3.07
2017-07-21T09:08:48.860Z,3.80
2017-07-21T09:11:16.962Z,3.57
2017-07-21T09:13:45.083Z,3.33
2017-07-21T09:16:13.189Z,4.00
2017-07-21T09:18:41.341Z,2.90
2017-07-21T09:21:09.431Z,3.17
2017-07-21T09:23:37.569Z,2.57
2017-07-21T09:26:05.663Z,2.57
2017-07-21T09:28:33.775Z,2.90
2017-07-21T09:31:01.884Z,3.17
2017-07-21T09:33:30.012Z,2.57
2017-07-21T09:35:58.110Z,3.10
2017-07-21T09:38:26.443Z,3.00
2017-07-21T09:40:54.886Z,3.73
2017-07-21T09:43:23.193Z,4.90
2017-07-21T09:45:51.301Z,4.83
2017-07-21T09:48:19.407Z,4.83
2017-07-21T09:50:47.505Z,5.60
2017-07-21T09:53:15.633Z,4.90
2017-07-21T09:55:43.790Z,5.33
2017-07-21T09:58:11.871Z,6.30
2017-07-21T10:00:40.040Z,6.53
2017-07-21T10:03:08.139Z,6.90
2017-07-21T10:05:36.255Z,5.50
2017-07-21T10:08:04.371Z,5.73
2017-07-21T10:10:32.492Z,5.63
2017-07-21T10:13:00.614Z,5.47
2017-07-21T10:15:28.713Z,4.10
2017-07-21T10:17:56.828Z,4.10
2017-07-21T10:20:25.024Z,3.70
2017-07-21T10:22:53.264Z,3.83
2017-07-21T10:25:21.379Z,4.23
2017-07-21T10:27:49.491Z,3.63
2017-07-21T10:30:18.019Z,3.50
2017-07-21T10:32:46.144Z,3.50
2017-07-21T10:35:14.260Z,2.77
2017-07-21T10:37:42.385Z,3.63
2017-07-21T10:40:15.444Z,3.03
2017-07-21T10:42:43.816Z,3.10
2017-07-21T10:45:11.923Z,2.97
2017-07-21T10:47:40.044Z,3.10
2017-07-21T10:50:08.147Z,2.47
2017-07-21T10:52:36.271Z,2.40
2017-07-21T10:55:04.429Z,2.77
2017-07-21T10:57:32.545Z,2.43
2017-07-21T11:00:01.120Z,2.13
2017-07-21T11:02:29.271Z,2.90
2017-07-21T11:04:57.384Z,3.63
2017-07-21T11:07:25.532Z,2.47
2017-07-21T11:09:53.636Z,4.00
2017-07-21T11:12:21.777Z,3.10
2017-07-21T11:14:49.992Z,3.57
2017-07-21T11:17:18.136Z,3.60
2017-07-21T11:19:46.263Z,4.00
2017-07-21T11:22:14.400Z,3.47
2017-07-21T11:24:42.513Z,4.90
2017-07-21T11:27:10.632Z,3.93
2017-07-21T11:29:38.831Z,4.87
2017-07-21T11:32:07.009Z,4.17
2017-07-21T11:34:35.121Z,4.10
2017-07-21T11:37:03.338Z,3.93
2017-07-21T11:39:31.445Z,4.10
2017-07-21T11:42:00.863Z,4.33
2017-07-21T11:44:29.063Z,4.60
2017-07-21T11:46:57.959Z,3.70
2017-07-21T11:49:26.075Z,4.63
2017-07-21T11:51:54.200Z,3.63
2017-07-21T11:54:22.311Z,4.03
2017-07-21T11:56:50.431Z,4.20
2017-07-21T11:59:18.519Z,4.67
2017-07-21T12:01:46.635Z,4.00
2017-07-21T12:04:14.808Z,3.87
2017-07-21T12:06:42.948Z,3.80
2017-07-21T12:09:11.067Z,4.53
2017-07-21T12:11:39.175Z,3.15
2017-07-21T12:14:07.306Z,3.90
2017-07-21T12:16:35.424Z,2.50
2017-07-21T12:19:03.548Z,2.60
2017-07-21T12:21:32.315Z,3.30
2017-07-21T12:24:00.448Z,3.30
2017-07-21T12:26:28.582Z,3.23
2017-07-21T12:28:56.849Z,2.90
2017-07-21T12:31:25.595Z,2.70
2017-07-21T12:33:53.751Z,3.43
2017-07-21T12:36:21.956Z,2.50
2017-07-21T12:38:50.104Z,3.10
2017-07-21T12:41:18.341Z,2.30
2017-07-21T12:43:46.462Z,2.90
2017-07-21T12:46:14.590Z,3.07
2017-07-21T12:48:42.730Z,2.23
2017-07-21T12:51:10.876Z,2.83
2017-07-21T12:53:39.019Z,2.50
2017-07-21T12:56:07.192Z,2.50
2017-07-21T12:58:35.327Z,2.30
2017-07-21T13:01:08.580Z,2.40
2017-07-21T13:03:36.748Z,2.43
2017-07-21T13:06:04.924Z,2.77
2017-07-21T13:08:33.079Z,2.23
2017-07-21T13:11:01.216Z,2.27
2017-07-21T13:13:29.395Z,2.50
2017-07-21T13:15:57.493Z,2.20
2017-07-21T13:18:25.624Z,2.13
2017-07-21T13:20:53.749Z,2.53
2017-07-21T13:23:21.873Z,1.93
2017-07-21T13:25:49.988Z,2.53
2017-07-21T13:28:18.212Z,2.27
2017-07-21T13:30:46.332Z,2.30
2017-07-21T13:33:14.480Z,3.33
2017-07-21T13:35:42.639Z,2.07
2017-07-21T13:38:10.772Z,2.43
2017-07-21T13:40:38.888Z,2.40
2017-07-21T13:43:06.998Z,2.13
2017-07-21T13:45:35.208Z,2.90
2017-07-21T13:48:03.344Z,2.43
2017-07-21T13:50:31.503Z,2.40
2017-07-21T13:52:59.616Z,2.70
2017-07-21T13:55:27.764Z,2.40
2017-07-21T13:57:55.960Z,2.93
2017-07-21T14:00:24.061Z,3.53
2017-07-21T14:02:52.427Z,2.63
2017-07-21T14:05:25.534Z,3.27
2017-07-21T14:07:53.771Z,2.80
2017-07-21T14:10:21.912Z,2.33
2017-07-21T14:12:50.049Z,2.83
2017-07-21T14:15:18.164Z,2.77
2017-07-21T14:17:46.271Z,2.93
2017-07-21T14:20:14.391Z,2.37
2017-07-21T14:22:42.540Z,2.30
2017-07-21T14:25:10.683Z,2.63
2017-07-21T14:27:38.844Z,2.57
2017-07-21T14:30:06.984Z,2.57
2017-07-21T14:32:35.136Z,3.10
2017-07-21T14:35:04.320Z,2.57
2017-07-21T14:37:32.455Z,3.17
2017-07-21T14:40:00.559Z,2.90
2017-07-21T14:42:28.676Z,2.70
2017-07-21T14:44:56.915Z,3.03
2017-07-21T14:47:25.027Z,2.53
2017-07-21T14:49:53.191Z,2.70
2017-07-21T14:52:21.354Z,2.47
2017-07-21T14:54:49.478Z,2.97
2017-07-21T14:57:17.582Z,3.30
2017-07-21T14:59:46.271Z,2.53
2017-07-21T15:02:14.404Z,2.73
2017-07-21T15:04:42.589Z,2.73
2017-07-21T15:07:10.696Z,2.60
2017-07-21T15:09:38.789Z,2.80
2017-07-21T15:12:06.907Z,3.10
2017-07-21T15:14:35.003Z,2.40
2017-07-21T15:17:03.103Z,2.97
2017-07-21T15:19:31.224Z,2.57
2017-07-21T15:21:59.336Z,3.60
2017-07-21T15:24:27.529Z,3.30
2017-07-21T15:26:55.671Z,3.27
2017-07-21T15:29:23.809Z,2.53
2017-07-21T15:31:51.944Z,3.10
2017-07-21T15:34:20.056Z,2.67
2017-07-21T15:36:48.163Z,2.53
2017-07-21T15:39:16.291Z,2.43
2017-07-21T15:41:44.425Z,2.90
2017-07-21T15:44:12.521Z,2.53
2017-07-21T15:46:40.727Z,2.70
2017-07-21T15:49:08.841Z,3.80
2017-07-21T15:51:36.959Z,2.97
2017-07-21T15:54:05.068Z,2.90
2017-07-21T15:56:33.395Z,2.73
2017-07-21T15:59:02.091Z,3.10
2017-07-21T16:01:30.207Z,3.00
2017-07-21T16:03:58.308Z,2.93
2017-07-21T16:06:26.415Z,3.40
2017-07-21T16:08:54.592Z,3.10
2017-07-21T16:11:22.699Z,3.10
2017-07-21T16:13:50.800Z,3.03
2017-07-21T16:16:18.891Z,3.37
2017-07-21T16:18:46.985Z,2.90
2017-07-21T16:21:15.200Z,3.53
2017-07-21T16:23:43.299Z,2.50
2017-07-21T16:26:11.407Z,3.60
2017-07-21T16:28:39.579Z,3.57
2017-07-21T16:31:07.688Z,2.90
2017-07-21T16:33:40.650Z,3.17
2017-07-21T16:36:08.760Z,3.20
2017-07-21T16:38:37.271Z,2.83
2017-07-21T16:41:05.343Z,3.03
2017-07-21T16:43:33.553Z,3.97
2017-07-21T16:46:01.635Z,3.50
2017-07-21T16:48:29.718Z,2.93
2017-07-21T16:50:57.874Z,3.77
2017-07-21T16:53:25.991Z,3.57
2017-07-21T16:55:54.107Z,3.50
2017-07-21T16:58:22.228Z,3.17
2017-07-21T17:00:50.352Z,3.60
2017-07-21T17:03:18.460Z,3.30
2017-07-21T17:05:46.563Z,3.43
2017-07-21T17:08:14.728Z,3.17
2017-07-21T17:10:42.839Z,2.90
2017-07-21T17:13:10.958Z,3.03
2017-07-21T17:15:39.619Z,4.00
2017-07-21T17:18:07.736Z,3.13
2017-07-21T17:20:35.851Z,3.40
2017-07-21T17:23:03.976Z,2.93
2017-07-21T17:25:32.087Z,3.23
2017-07-21T17:28:00.192Z,2.70
2017-07-21T17:30:28.299Z,3.60
2017-07-21T17:32:56.391Z,3.50
2017-07-21T17:35:24.489Z,3.17
2017-07-21T17:37:52.609Z,3.30
2017-07-21T17:42:54.130Z,2.90
2017-07-21T17:45:22.255Z,3.50
2017-07-21T17:47:50.364Z,3.50
2017-07-21T17:50:18.495Z,3.23
2017-07-21T17:52:46.639Z,3.60
2017-07-21T17:55:14.760Z,3.20
2017-07-21T17:57:42.887Z,3.27
2017-07-21T18:00:10.999Z,3.20
2017-07-21T18:02:39.110Z,3.50
2017-07-21T18:05:07.221Z,3.30
2017-07-21T18:07:35.331Z,2.73
2017-07-21T18:10:03.661Z,3.70
2017-07-21T18:12:31.786Z,3.30
2017-07-21T18:14:59.907Z,3.80
2017-07-21T18:17:28.029Z,3.10
2017-07-21T18:19:56.159Z,3.57
2017-07-21T18:22:24.295Z,3.53
2017-07-21T18:24:52.383Z,3.50
2017-07-21T18:27:20.492Z,3.90
2017-07-21T18:29:48.675Z,3.27
2017-07-21T18:32:16.919Z,3.63
2017-07-21T18:34:45.032Z,3.33
2017-07-21T18:37:13.149Z,3.77
2017-07-21T18:39:41.288Z,3.43
2017-07-21T18:42:09.404Z,3.77
2017-07-21T18:44:37.516Z,3.30
2017-07-21T18:47:05.654Z,3.10
2017-07-21T18:52:11.855Z,3.40
2017-07-21T18:54:39.985Z,3.40
2017-07-21T18:57:08.163Z,3.77
2017-07-21T18:59:36.257Z,3.03
2017-07-21T19:02:04.370Z,2.67
2017-07-21T19:04:32.498Z,3.10
2017-07-21T19:07:00.588Z,3.73
2017-07-21T19:09:29.195Z,3.40
2017-07-21T19:11:57.307Z,3.70
2017-07-21T19:14:25.407Z,3.40
2017-07-21T19:16:53.559Z,3.23
2017-07-21T19:19:21.683Z,3.50
2017-07-21T19:21:49.813Z,3.20
2017-07-21T19:24:17.902Z,3.57
2017-07-21T19:26:46.035Z,3.30
2017-07-21T19:29:14.146Z,3.40
2017-07-21T19:31:42.265Z,3.00
2017-07-21T19:34:10.367Z,4.70
2017-07-21T19:36:38.491Z,3.53
2017-07-21T19:39:06.599Z,4.30
2017-07-21T19:41:34.772Z,2.90
2017-07-21T19:44:03.123Z,3.30
2017-07-21T19:47:55.775Z,3.40
2017-07-21T19:50:23.892Z,3.57
2017-07-21T19:52:52.052Z,3.20
2017-07-21T19:55:20.808Z,3.00
2017-07-21T19:57:48.913Z,3.03
2017-07-21T20:00:17.019Z,3.30
2017-07-21T20:02:45.232Z,3.50
2017-07-21T20:05:13.352Z,3.07
2017-07-21T20:07:41.480Z,2.93
2017-07-21T20:10:09.567Z,3.37
2017-07-21T20:12:37.696Z,3.47
2017-07-21T20:15:05.788Z,2.73
2017-07-21T20:17:33.895Z,3.33
2017-07-21T20:20:02.212Z,2.97
2017-07-21T20:22:30.331Z,3.20
2017-07-21T20:24:58.432Z,3.73
2017-07-21T20:27:26.542Z,3.43
2017-07-21T20:29:54.672Z,3.60
2017-07-21T20:32:22.780Z,2.80
2017-07-21T20:37:28.605Z,2.67
2017-07-21T20:39:56.708Z,2.73
2017-07-21T20:42:24.824Z,2.63
2017-07-21T20:44:53.005Z,3.20
2017-07-21T20:47:25.810Z,2.70
2017-07-21T20:49:53.899Z,1.90
2017-07-21T20:52:22.359Z,2.53
2017-07-21T20:57:28.228Z,2.90
2017-07-21T20:59:57.104Z,4.40
2017-07-21T21:02:25.234Z,2.97
2017-07-21T21:04:53.360Z,2.77
2017-07-21T21:07:21.592Z,2.70
2017-07-21T21:09:49.763Z,2.90
2017-07-21T21:12:17.951Z,2.40
2017-07-21T21:14:46.056Z,2.70
2017-07-21T21:17:14.144Z,2.73
2017-07-21T21:19:42.242Z,2.50
2017-07-21T21:22:10.364Z,2.70
2017-07-21T21:24:38.476Z,2.43
2017-07-21T21:27:06.595Z,3.40
2017-07-21T21:29:34.694Z,2.40
2017-07-21T21:32:02.806Z,2.90
2017-07-21T21:34:30.896Z,2.60
2017-07-21T21:36:58.988Z,2.60
2017-07-21T21:39:27.093Z,2.87
2017-07-21T21:41:55.217Z,2.60
2017-07-21T21:44:23.339Z,2.50
2017-07-21T21:46:51.460Z,2.37
2017-07-21T21:49:19.575Z,2.40
2017-07-21T21:51:47.674Z,3.00
2017-07-21T21:54:15.787Z,2.27
2017-07-21T21:56:44.026Z,2.77
2017-07-21T21:59:12.144Z,2.00
2017-07-21T22:01:40.306Z,2.50
2017-07-21T22:04:08.428Z,2.17
2017-07-21T22:06:36.589Z,2.00
2017-07-21T22:09:05.019Z,2.10
2017-07-21T22:11:33.155Z,2.23
2017-07-21T22:14:01.263Z,2.53
2017-07-21T22:16:29.376Z,1.60
2017-07-21T22:18:57.484Z,2.40
2017-07-21T22:21:25.595Z,2.20
2017-07-21T22:23:53.712Z,2.40
2017-07-21T22:26:21.816Z,2.67
2017-07-21T22:28:49.907Z,2.17
2017-07-21T22:31:18.047Z,2.50
2017-07-21T22:33:46.143Z,2.60
2017-07-21T22:36:15.172Z,2.43
2017-07-21T22:38:43.283Z,2.57
2017-07-21T22:41:11.399Z,1.80
2017-07-21T22:43:39.515Z,2.07
2017-07-21T22:46:07.619Z,2.50
2017-07-21T22:48:35.721Z,2.60
2017-07-21T22:51:03.842Z,2.10
2017-07-21T22:53:31.955Z,2.17
2017-07-21T22:56:00.142Z,2.17
2017-07-21T22:58:28.247Z,2.63
2017-07-21T23:00:57.271Z,3.40
2017-07-21T23:03:25.384Z,1.80
2017-07-21T23:05:53.479Z,1.90
2017-07-21T23:08:21.584Z,2.43
2017-07-21T23:10:49.697Z,1.87
2017-07-21T23:13:17.825Z,2.03
2017-07-21T23:15:45.926Z,1.70
2017-07-21T23:18:14.040Z,2.33
2017-07-21T23:20:42.164Z,2.37
2017-07-21T23:25:48.868Z,1.90
2017-07-21T23:28:16.983Z,2.43
2017-07-21T23:30:45.084Z,2.33
2017-07-21T23:33:13.179Z,3.00
2017-07-21T23:35:41.291Z,1.90
2017-07-21T23:38:09.407Z,2.20
2017-07-21T23:40:37.603Z,2.43
2017-07-21T23:43:05.723Z,1.60
2017-07-21T23:45:33.828Z,1.87
2017-07-21T23:48:01.998Z,2.50
2017-07-21T23:50:30.123Z,2.20
2017-07-21T23:52:58.227Z,2.17
2017-07-21T23:55:26.340Z,2.37
2017-07-21T23:57:54.463Z,2.23
